Time,TemperatureF,DewpointF,PressureIn,WindDirection,WindDirectionDegrees,WindSpeedMPH,WindSpeedGustMPH,Humidity,HourlyPrecipIn,Conditions,Clouds,dailyrainin,SolarRadiationWatts/m^2,SoftwareType,DateUTC
2013-07-12 00:01:00,71.0,70.0,-100.00,WNW,302,0.0,4.0,96,0.00,,,0.01,0.000000,,2013-07-12 04:01:00,
2013-07-12 00:32:00,71.0,70.0,-100.00,SSE,160,2.0,6.0,96,0.00,,,0.01,0.000000,,2013-07-12 04:32:00,
2013-07-12 00:43:00,71.0,70.0,-100.00,SSE,160,2.0,6.0,96,0.00,,,0.01,0.000000,,2013-07-12 04:43:00,
2013-07-12 00:53:00,71.0,70.0,-100.00,SSE,160,2.0,6.0,96,0.00,,,0.01,0.000000,,2013-07-12 04:53:00,
2013-07-12 01:02:00,71.0,70.0,-100.00,SSE,160,2.0,6.0,96,0.00,,,0.01,0.000000,,2013-07-12 05:02:00,
2013-07-12 01:32:00,71.0,70.0,-100.00,NNW,338,2.0,4.0,97,0.00,,,0.01,0.000000,,2013-07-12 05:32:00,
2013-07-12 01:43:00,71.0,70.0,-100.00,NNW,338,2.0,4.0,97,0.00,,,0.01,0.000000,,2013-07-12 05:43:00,
2013-07-12 01:53:00,71.0,70.0,-100.00,NNW,338,2.0,4.0,97,0.00,,,0.01,0.000000,,2013-07-12 05:53:00,
2013-07-12 02:01:00,71.0,70.0,-100.00,NNW,338,2.0,4.0,97,0.00,,,0.01,0.000000,,2013-07-12 06:01:00,
2013-07-12 02:33:00,69.0,68.0,-100.00,SW,233,1.0,3.0,97,0.00,,,0.01,0.000000,,2013-07-12 06:33:00,
2013-07-12 02:42:00,69.0,68.0,-100.00,SW,233,1.0,3.0,97,0.00,,,0.01,0.000000,,2013-07-12 06:42:00,
2013-07-12 02:52:00,69.0,68.0,-100.00,SW,233,1.0,3.0,97,0.00,,,0.01,0.000000,,2013-07-12 06:52:00,
2013-07-12 03:02:00,69.0,68.0,-100.00,SW,233,1.0,3.0,97,0.00,,,0.01,0.000000,,2013-07-12 07:02:00,
2013-07-12 03:33:00,69.0,68.0,-100.00,SSE,157,3.0,4.0,97,0.00,,,0.01,0.000000,,2013-07-12 07:33:00,
2013-07-12 03:43:00,69.0,68.0,-100.00,SSE,157,3.0,4.0,97,0.00,,,0.01,0.000000,,2013-07-12 07:43:00,
2013-07-12 03:52:00,69.0,68.0,-100.00,SSE,157,3.0,4.0,97,0.00,,,0.01,0.000000,,2013-07-12 07:52:00,
2013-07-12 04:01:00,69.0,68.0,-100.00,SSE,157,3.0,4.0,97,0.00,,,0.01,0.000000,,2013-07-12 08:01:00,
2013-07-12 04:32:00,69.0,68.0,-100.00,NE,34,2.0,4.0,98,0.00,,,0.01,0.000000,,2013-07-12 08:32:00,
2013-07-12 04:42:00,69.0,68.0,-100.00,NE,34,2.0,4.0,98,0.00,,,0.01,0.000000,,2013-07-12 08:42:00,
2013-07-12 04:53:00,69.0,68.0,-100.00,NE,34,2.0,4.0,98,0.00,,,0.01,0.000000,,2013-07-12 08:53:00,
2013-07-12 05:02:00,69.0,68.0,-100.00,NE,34,2.0,4.0,98,0.00,,,0.01,0.000000,,2013-07-12 09:02:00,
2013-07-12 05:43:00,69.0,68.0,-100.00,East,101,2.0,4.0,98,0.00,,,0.01,0.000000,,2013-07-12 09:43:00,
2013-07-12 05:52:00,69.0,68.0,-100.00,East,101,2.0,4.0,98,0.00,,,0.01,0.000000,,2013-07-12 09:52:00,
2013-07-12 06:01:00,69.0,68.0,-100.00,East,101,2.0,4.0,98,0.00,,,0.01,0.000000,,2013-07-12 10:01:00,
2013-07-12 06:33:00,69.0,68.0,-100.00,WNW,302,1.0,4.0,98,0.00,,,0.00,0.000000,,2013-07-12 10:33:00,
2013-07-12 06:42:00,69.0,68.0,-100.00,WNW,302,1.0,4.0,98,0.00,,,0.00,0.000000,,2013-07-12 10:42:00,
2013-07-12 06:52:00,69.0,68.0,-100.00,WNW,302,1.0,4.0,98,0.00,,,0.00,0.000000,,2013-07-12 10:52:00,
2013-07-12 07:02:00,69.0,68.0,-100.00,WNW,302,1.0,4.0,98,0.00,,,0.00,0.000000,,2013-07-12 11:02:00,
2013-07-12 07:32:00,68.0,67.0,-100.00,WSW,255,2.0,4.0,98,0.00,,,0.00,3.000000,,2013-07-12 11:32:00,
2013-07-12 07:43:00,68.0,67.0,-100.00,WSW,255,2.0,4.0,98,0.00,,,0.00,3.000000,,2013-07-12 11:43:00,
2013-07-12 07:53:00,68.0,67.0,-100.00,WSW,255,2.0,4.0,98,0.00,,,0.00,3.000000,,2013-07-12 11:53:00,
2013-07-12 08:02:00,68.0,67.0,-100.00,WSW,255,2.0,4.0,98,0.00,,,0.00,3.000000,,2013-07-12 12:02:00,
2013-07-12 08:32:00,69.0,68.0,-100.00,ESE,102,1.0,4.0,98,0.00,,,0.00,52.000000,,2013-07-12 12:32:00,
2013-07-12 08:43:00,69.0,68.0,-100.00,ESE,102,1.0,4.0,98,0.00,,,0.00,52.000000,,2013-07-12 12:43:00,
2013-07-12 08:53:00,69.0,68.0,-100.00,ESE,102,1.0,4.0,98,0.00,,,0.00,52.000000,,2013-07-12 12:53:00,
2013-07-12 09:01:00,69.0,68.0,-100.00,ESE,102,1.0,4.0,98,0.00,,,0.00,52.000000,,2013-07-12 13:01:00,
2013-07-12 09:32:00,71.0,70.0,-100.00,WNW,284,3.0,4.0,98,0.00,,,0.00,132.000000,,2013-07-12 13:32:00,
2013-07-12 09:43:00,71.0,70.0,-100.00,WNW,284,3.0,4.0,98,0.00,,,0.00,132.000000,,2013-07-12 13:43:00,
2013-07-12 09:53:00,71.0,70.0,-100.00,WNW,284,3.0,4.0,98,0.00,,,0.00,132.000000,,2013-07-12 13:53:00,
2013-07-12 10:02:00,71.0,70.0,-100.00,WNW,284,3.0,4.0,98,0.00,,,0.00,132.000000,,2013-07-12 14:02:00,
2013-07-12 10:32:00,74.0,70.0,-100.00,WSW,246,3.0,5.0,87,0.00,,,0.00,292.000000,,2013-07-12 14:32:00,
2013-07-12 10:44:00,74.0,70.0,-100.00,WSW,246,3.0,5.0,87,0.00,,,0.00,292.000000,,2013-07-12 14:44:00,
2013-07-12 10:53:00,74.0,70.0,-100.00,WSW,246,3.0,5.0,87,0.00,,,0.00,292.000000,,2013-07-12 14:53:00,
2013-07-12 11:02:00,74.0,70.0,-100.00,WSW,246,3.0,5.0,87,0.00,,,0.00,292.000000,,2013-07-12 15:02:00,
2013-07-12 11:43:00,75.0,69.0,-100.00,NNW,327,6.0,10.0,81,0.00,,,0.00,571.000000,,2013-07-12 15:43:00,
2013-07-12 11:53:00,75.0,69.0,-100.00,NNW,327,6.0,10.0,81,0.00,,,0.00,571.000000,,2013-07-12 15:53:00,
2013-07-12 12:01:00,75.0,69.0,-100.00,NNW,327,6.0,10.0,81,0.00,,,0.00,571.000000,,2013-07-12 16:01:00,
2013-07-12 12:05:00,78.0,70.0,-100.00,NW,305,8.0,12.0,77,0.00,,,0.00,905.000000,,2013-07-12 16:05:00,
2013-07-12 12:32:00,78.0,70.0,-100.00,NW,305,8.0,12.0,77,0.00,,,0.00,905.000000,,2013-07-12 16:32:00,
2013-07-12 12:43:00,78.0,70.0,-100.00,NW,305,8.0,12.0,77,0.00,,,0.00,905.000000,,2013-07-12 16:43:00,
2013-07-12 12:58:00,78.0,70.0,-100.00,NW,305,8.0,12.0,77,0.00,,,0.00,905.000000,,2013-07-12 16:58:00,
2013-07-12 13:40:00,80.0,68.0,-100.00,NW,312,8.0,13.0,67,0.00,,,0.00,871.000000,,2013-07-12 17:40:00,
2013-07-12 13:47:00,80.0,68.0,-100.00,NW,312,8.0,13.0,67,0.00,,,0.00,871.000000,,2013-07-12 17:47:00,
2013-07-12 15:48:00,82.0,67.0,-100.00,NW,324,8.0,18.0,60,0.00,,,0.00,1037.000000,,2013-07-12 19:48:00,
2013-07-12 16:35:00,82.0,66.0,-100.00,NW,322,10.0,17.0,58,0.00,,,0.00,935.000000,,2013-07-12 20:35:00,
2013-07-12 16:47:00,82.0,66.0,-100.00,NW,322,10.0,17.0,58,0.00,,,0.00,935.000000,,2013-07-12 20:47:00,
2013-07-12 17:03:00,82.0,66.0,-100.00,NW,322,10.0,17.0,58,0.00,,,0.00,935.000000,,2013-07-12 21:03:00,
2013-07-12 17:36:00,82.0,66.0,-100.00,NW,311,9.0,16.0,59,0.00,,,0.00,812.000000,,2013-07-12 21:36:00,
2013-07-12 17:49:00,82.0,66.0,-100.00,NW,311,9.0,16.0,59,0.00,,,0.00,812.000000,,2013-07-12 21:49:00,
2013-07-12 17:59:00,82.0,66.0,-100.00,NW,311,9.0,16.0,59,0.00,,,0.00,812.000000,,2013-07-12 21:59:00,
2013-07-12 18:47:00,81.0,66.0,-100.00,NW,312,9.0,14.0,60,0.00,,,0.00,619.000000,,2013-07-12 22:47:00,
2013-07-12 18:56:00,81.0,66.0,-100.00,NW,312,9.0,14.0,60,0.00,,,0.00,619.000000,,2013-07-12 22:56:00,
2013-07-12 19:04:00,81.0,66.0,-100.00,NW,312,9.0,14.0,60,0.00,,,0.00,619.000000,,2013-07-12 23:04:00,
2013-07-12 19:37:00,79.0,66.0,-100.00,NW,308,9.0,13.0,64,0.00,,,0.00,406.000000,,2013-07-12 23:37:00,
2013-07-12 19:45:00,79.0,66.0,-100.00,NW,308,9.0,13.0,64,0.00,,,0.00,406.000000,,2013-07-12 23:45:00,
2013-07-12 19:58:00,79.0,66.0,-100.00,NW,308,9.0,13.0,64,0.00,,,0.00,406.000000,,2013-07-12 23:58:00,
2013-07-12 20:05:00,77.0,66.0,-100.00,WNW,303,7.0,11.0,69,0.00,,,0.00,204.000000,,2013-07-13 00:05:00,
2013-07-12 20:34:00,77.0,66.0,-100.00,WNW,303,7.0,11.0,69,0.00,,,0.00,204.000000,,2013-07-13 00:34:00,
2013-07-12 20:49:00,77.0,66.0,-100.00,WNW,303,7.0,11.0,69,0.00,,,0.00,204.000000,,2013-07-13 00:49:00,
2013-07-12 20:56:00,77.0,66.0,-100.00,WNW,303,7.0,11.0,69,0.00,,,0.00,204.000000,,2013-07-13 00:56:00,
2013-07-12 21:05:00,71.0,64.0,-100.00,WNW,289,4.0,10.0,78,0.00,,,0.00,32.000000,,2013-07-13 01:05:00,
2013-07-12 21:41:00,71.0,64.0,-100.00,WNW,289,4.0,10.0,78,0.00,,,0.00,32.000000,,2013-07-13 01:41:00,
2013-07-12 21:50:00,71.0,64.0,-100.00,WNW,289,4.0,10.0,78,0.00,,,0.00,32.000000,,2013-07-13 01:50:00,
2013-07-12 21:57:00,71.0,64.0,-100.00,WNW,289,4.0,10.0,78,0.00,,,0.00,32.000000,,2013-07-13 01:57:00,
2013-07-12 22:05:00,69.0,64.0,-100.00,NW,325,2.0,6.0,83,0.00,,,0.00,0.000000,,2013-07-13 02:05:00,
2013-07-12 22:48:00,69.0,64.0,-100.00,NW,325,2.0,6.0,83,0.00,,,0.00,0.000000,,2013-07-13 02:48:00,
2013-07-12 22:56:00,69.0,64.0,-100.00,NW,325,2.0,6.0,83,0.00,,,0.00,0.000000,,2013-07-13 02:56:00,
2013-07-12 23:47:00,67.0,64.0,-100.00,ENE,57,1.0,7.0,89,0.00,,,0.00,0.000000,,2013-07-13 03:47:00,
2013-07-12 23:57:00,67.0,64.0,-100.00,ENE,57,1.0,7.0,89,0.00,,,0.00,0.000000,,2013-07-13 03:57:00,